sensor_id;sensor_type;location;lat;lon;timestamp;P1;durP1;ratioP1;P2;durP2;ratioP2
72573;SDS011;60603;52.548;13.420;2022-12-18T00:01:18;35.70;;;13.02;;
72573;SDS011;60603;52.548;13.420;2022-12-18T00:03:45;31.55;;;11.77;;
72573;SDS011;60603;52.548;13.420;2022-12-18T00:06:11;35.65;;;12.25;;
72573;SDS011;60603;52.548;13.420;2022-12-18T00:08:39;36.67;;;14.57;;
72573;SDS011;60603;52.548;13.420;2022-12-18T00:11:11;34.25;;;14.20;;
72573;SDS011;60603;52.548;13.420;2022-12-18T00:13:42;46.80;;;14.23;;
72573;SDS011;60603;52.548;13.420;2022-12-18T00:16:09;35.92;;;13.10;;
72573;SDS011;60603;52.548;13.420;2022-12-18T00:18:39;43.50;;;14.38;;
72573;SDS011;60603;52.548;13.420;2022-12-18T00:21:06;38.80;;;14.00;;
72573;SDS011;60603;52.548;13.420;2022-12-18T00:23:33;33.97;;;13.75;;
72573;SDS011;60603;52.548;13.420;2022-12-18T00:26:03;40.33;;;13.82;;
72573;SDS011;60603;52.548;13.420;2022-12-18T00:28:31;37.63;;;14.50;;
72573;SDS011;60603;52.548;13.420;2022-12-18T00:31:01;39.95;;;14.10;;
72573;SDS011;60603;52.548;13.420;2022-12-18T00:33:34;45.10;;;13.88;;
72573;SDS011;60603;52.548;13.420;2022-12-18T00:36:01;44.40;;;13.65;;
72573;SDS011;60603;52.548;13.420;2022-12-18T00:38:27;37.55;;;13.05;;
72573;SDS011;60603;52.548;13.420;2022-12-18T00:40:53;36.90;;;12.18;;
72573;SDS011;60603;52.548;13.420;2022-12-18T00:43:19;36.60;;;13.25;;
72573;SDS011;60603;52.548;13.420;2022-12-18T00:45:45;43.70;;;13.95;;
72573;SDS011;60603;52.548;13.420;2022-12-18T00:48:11;38.70;;;13.13;;
72573;SDS011;60603;52.548;13.420;2022-12-18T00:50:36;38.42;;;13.35;;
72573;SDS011;60603;52.548;13.420;2022-12-18T00:53:02;34.33;;;12.65;;
72573;SDS011;60603;52.548;13.420;2022-12-18T00:55:28;45.33;;;13.65;;
72573;SDS011;60603;52.548;13.420;2022-12-18T00:57:54;39.03;;;12.82;;
72573;SDS011;60603;52.548;13.420;2022-12-18T01:00:19;36.78;;;11.68;;
72573;SDS011;60603;52.548;13.420;2022-12-18T01:02:45;36.00;;;13.13;;
72573;SDS011;60603;52.548;13.420;2022-12-18T01:05:12;36.75;;;13.20;;
72573;SDS011;60603;52.548;13.420;2022-12-18T01:07:38;39.85;;;12.60;;
72573;SDS011;60603;52.548;13.420;2022-12-18T01:10:04;36.78;;;12.60;;
72573;SDS011;60603;52.548;13.420;2022-12-18T01:12:32;37.30;;;10.98;;
72573;SDS011;60603;52.548;13.420;2022-12-18T01:14:58;34.95;;;12.20;;
72573;SDS011;60603;52.548;13.420;2022-12-18T01:17:24;42.38;;;13.43;;
72573;SDS011;60603;52.548;13.420;2022-12-18T01:19:49;29.88;;;11.35;;
72573;SDS011;60603;52.548;13.420;2022-12-18T01:22:15;34.08;;;12.30;;
72573;SDS011;60603;52.548;13.420;2022-12-18T01:24:41;36.22;;;12.57;;
72573;SDS011;60603;52.548;13.420;2022-12-18T01:27:07;30.65;;;11.95;;
72573;SDS011;60603;52.548;13.420;2022-12-18T01:29:33;33.78;;;12.73;;
72573;SDS011;60603;52.548;13.420;2022-12-18T01:31:59;33.03;;;13.00;;
72573;SDS011;60603;52.548;13.420;2022-12-18T01:34:24;37.25;;;13.48;;
72573;SDS011;60603;52.548;13.420;2022-12-18T01:36:50;37.40;;;14.48;;
72573;SDS011;60603;52.548;13.420;2022-12-18T01:39:17;34.40;;;11.65;;
72573;SDS011;60603;52.548;13.420;2022-12-18T01:41:44;36.47;;;11.93;;
72573;SDS011;60603;52.548;13.420;2022-12-18T01:49:56;32.28;;;12.68;;
72573;SDS011;60603;52.548;13.420;2022-12-18T01:52:24;29.73;;;10.65;;
72573;SDS011;60603;52.548;13.420;2022-12-18T01:54:51;33.53;;;12.93;;
72573;SDS011;60603;52.548;13.420;2022-12-18T01:57:18;31.42;;;11.20;;
72573;SDS011;60603;52.548;13.420;2022-12-18T01:59:45;35.97;;;12.50;;
72573;SDS011;60603;52.548;13.420;2022-12-18T02:02:15;32.88;;;11.32;;
72573;SDS011;60603;52.548;13.420;2022-12-18T02:04:41;37.45;;;11.35;;
72573;SDS011;60603;52.548;13.420;2022-12-18T02:07:10;31.98;;;11.07;;
72573;SDS011;60603;52.548;13.420;2022-12-18T02:10:00;37.33;;;11.63;;
72573;SDS011;60603;52.548;13.420;2022-12-18T02:12:33;32.65;;;11.82;;
72573;SDS011;60603;52.548;13.420;2022-12-18T02:18:02;32.75;;;10.85;;
72573;SDS011;60603;52.548;13.420;2022-12-18T02:20:35;38.67;;;10.98;;
72573;SDS011;60603;52.548;13.420;2022-12-18T02:23:09;37.00;;;12.32;;
72573;SDS011;60603;52.548;13.420;2022-12-18T02:28:28;32.42;;;12.10;;
72573;SDS011;60603;52.548;13.420;2022-12-18T02:30:56;38.45;;;12.38;;
72573;SDS011;60603;52.548;13.420;2022-12-18T02:33:24;35.45;;;13.90;;
72573;SDS011;60603;52.548;13.420;2022-12-18T02:35:50;38.80;;;13.02;;
72573;SDS011;60603;52.548;13.420;2022-12-18T02:38:18;44.53;;;16.10;;
72573;SDS011;60603;52.548;13.420;2022-12-18T02:40:44;36.03;;;12.98;;
72573;SDS011;60603;52.548;13.420;2022-12-18T02:43:13;41.95;;;15.73;;
72573;SDS011;60603;52.548;13.420;2022-12-18T02:48:18;41.83;;;13.45;;
72573;SDS011;60603;52.548;13.420;2022-12-18T02:50:52;53.25;;;15.77;;
72573;SDS011;60603;52.548;13.420;2022-12-18T02:56:14;54.00;;;17.65;;
72573;SDS011;60603;52.548;13.420;2022-12-18T02:59:02;40.45;;;13.90;;
72573;SDS011;60603;52.548;13.420;2022-12-18T03:04:13;46.55;;;16.95;;
72573;SDS011;60603;52.548;13.420;2022-12-18T03:06:46;50.53;;;15.02;;
72573;SDS011;60603;52.548;13.420;2022-12-18T03:09:22;55.47;;;16.80;;
72573;SDS011;60603;52.548;13.420;2022-12-18T03:12:03;55.28;;;17.75;;
72573;SDS011;60603;52.548;13.420;2022-12-18T03:14:53;53.33;;;19.58;;
72573;SDS011;60603;52.548;13.420;2022-12-18T03:17:35;53.78;;;17.45;;
72573;SDS011;60603;52.548;13.420;2022-12-18T03:20:07;47.28;;;18.23;;
72573;SDS011;60603;52.548;13.420;2022-12-18T03:22:36;59.05;;;18.65;;
72573;SDS011;60603;52.548;13.420;2022-12-18T03:25:03;52.72;;;16.67;;
72573;SDS011;60603;52.548;13.420;2022-12-18T03:27:31;55.80;;;18.88;;
72573;SDS011;60603;52.548;13.420;2022-12-18T03:30:01;52.10;;;17.95;;
72573;SDS011;60603;52.548;13.420;2022-12-18T03:32:38;55.83;;;19.17;;
72573;SDS011;60603;52.548;13.420;2022-12-18T03:35:07;53.22;;;15.50;;
72573;SDS011;60603;52.548;13.420;2022-12-18T03:37:34;52.10;;;16.83;;
72573;SDS011;60603;52.548;13.420;2022-12-18T03:40:00;56.90;;;18.00;;
72573;SDS011;60603;52.548;13.420;2022-12-18T03:42:28;45.35;;;15.95;;
72573;SDS011;60603;52.548;13.420;2022-12-18T03:45:02;50.97;;;16.10;;
72573;SDS011;60603;52.548;13.420;2022-12-18T03:50:35;42.65;;;14.40;;
72573;SDS011;60603;52.548;13.420;2022-12-18T03:53:09;48.75;;;14.45;;
72573;SDS011;60603;52.548;13.420;2022-12-18T03:55:39;47.50;;;15.95;;
72573;SDS011;60603;52.548;13.420;2022-12-18T03:58:06;42.10;;;13.20;;
72573;SDS011;60603;52.548;13.420;2022-12-18T04:00:32;48.80;;;15.88;;
72573;SDS011;60603;52.548;13.420;2022-12-18T04:02:59;39.83;;;14.07;;
72573;SDS011;60603;52.548;13.420;2022-12-18T04:05:26;38.05;;;14.45;;
72573;SDS011;60603;52.548;13.420;2022-12-18T04:07:53;43.53;;;14.30;;
72573;SDS011;60603;52.548;13.420;2022-12-18T04:10:20;39.35;;;12.60;;
72573;SDS011;60603;52.548;13.420;2022-12-18T04:12:45;39.10;;;13.75;;
72573;SDS011;60603;52.548;13.420;2022-12-18T04:15:12;43.17;;;13.20;;
72573;SDS011;60603;52.548;13.420;2022-12-18T04:17:38;46.72;;;14.88;;
72573;SDS011;60603;52.548;13.420;2022-12-18T04:20:13;38.88;;;12.52;;
72573;SDS011;60603;52.548;13.420;2022-12-18T04:22:38;37.53;;;11.27;;
72573;SDS011;60603;52.548;13.420;2022-12-18T04:25:04;38.00;;;13.15;;
72573;SDS011;60603;52.548;13.420;2022-12-18T04:27:30;45.97;;;13.73;;
72573;SDS011;60603;52.548;13.420;2022-12-18T04:29:56;42.40;;;12.73;;
72573;SDS011;60603;52.548;13.420;2022-12-18T04:32:22;44.45;;;15.48;;
72573;SDS011;60603;52.548;13.420;2022-12-18T04:34:48;42.83;;;13.02;;
72573;SDS011;60603;52.548;13.420;2022-12-18T04:37:13;39.70;;;13.80;;
72573;SDS011;60603;52.548;13.420;2022-12-18T04:39:39;37.97;;;13.77;;
72573;SDS011;60603;52.548;13.420;2022-12-18T04:42:05;40.13;;;12.55;;
72573;SDS011;60603;52.548;13.420;2022-12-18T04:44:31;39.58;;;13.63;;
72573;SDS011;60603;52.548;13.420;2022-12-18T04:46:57;39.95;;;11.80;;
72573;SDS011;60603;52.548;13.420;2022-12-18T04:49:23;39.95;;;13.43;;
72573;SDS011;60603;52.548;13.420;2022-12-18T04:51:48;44.05;;;13.27;;
72573;SDS011;60603;52.548;13.420;2022-12-18T04:54:14;36.40;;;13.75;;
72573;SDS011;60603;52.548;13.420;2022-12-18T04:56:40;40.92;;;13.32;;
72573;SDS011;60603;52.548;13.420;2022-12-18T04:59:06;33.47;;;12.40;;
72573;SDS011;60603;52.548;13.420;2022-12-18T05:01:31;41.85;;;14.18;;
72573;SDS011;60603;52.548;13.420;2022-12-18T05:03:57;36.70;;;11.25;;
72573;SDS011;60603;52.548;13.420;2022-12-18T05:06:23;44.30;;;13.43;;
72573;SDS011;60603;52.548;13.420;2022-12-18T05:08:49;46.30;;;13.32;;
72573;SDS011;60603;52.548;13.420;2022-12-18T05:11:15;36.80;;;12.25;;
72573;SDS011;60603;52.548;13.420;2022-12-18T05:13:41;37.20;;;14.05;;
72573;SDS011;60603;52.548;13.420;2022-12-18T05:16:08;40.30;;;13.38;;
72573;SDS011;60603;52.548;13.420;2022-12-18T05:18:35;44.05;;;12.57;;
72573;SDS011;60603;52.548;13.420;2022-12-18T05:21:00;34.67;;;11.07;;
72573;SDS011;60603;52.548;13.420;2022-12-18T05:23:27;41.67;;;14.13;;
72573;SDS011;60603;52.548;13.420;2022-12-18T05:25:53;40.15;;;13.63;;
72573;SDS011;60603;52.548;13.420;2022-12-18T05:28:24;40.38;;;12.20;;
72573;SDS011;60603;52.548;13.420;2022-12-18T05:30:51;42.60;;;12.13;;
72573;SDS011;60603;52.548;13.420;2022-12-18T05:33:19;44.92;;;12.55;;
72573;SDS011;60603;52.548;13.420;2022-12-18T05:35:49;33.30;;;12.20;;
72573;SDS011;60603;52.548;13.420;2022-12-18T05:38:16;39.00;;;13.23;;
72573;SDS011;60603;52.548;13.420;2022-12-18T05:40:42;26.02;;;9.82;;
72573;SDS011;60603;52.548;13.420;2022-12-18T05:43:09;31.85;;;11.38;;
72573;SDS011;60603;52.548;13.420;2022-12-18T05:45:38;32.00;;;11.15;;
72573;SDS011;60603;52.548;13.420;2022-12-18T05:48:05;31.75;;;13.10;;
72573;SDS011;60603;52.548;13.420;2022-12-18T05:50:33;32.88;;;12.00;;
72573;SDS011;60603;52.548;13.420;2022-12-18T05:53:00;37.60;;;12.52;;
72573;SDS011;60603;52.548;13.420;2022-12-18T05:55:25;38.42;;;11.63;;
72573;SDS011;60603;52.548;13.420;2022-12-18T05:57:51;42.03;;;14.10;;
72573;SDS011;60603;52.548;13.420;2022-12-18T06:00:17;36.95;;;11.65;;
72573;SDS011;60603;52.548;13.420;2022-12-18T06:02:46;32.40;;;10.60;;
72573;SDS011;60603;52.548;13.420;2022-12-18T06:05:12;34.25;;;10.40;;
72573;SDS011;60603;52.548;13.420;2022-12-18T06:07:38;39.95;;;13.23;;
72573;SDS011;60603;52.548;13.420;2022-12-18T06:10:04;40.80;;;13.35;;
72573;SDS011;60603;52.548;13.420;2022-12-18T06:12:30;39.25;;;13.82;;
72573;SDS011;60603;52.548;13.420;2022-12-18T06:14:56;43.00;;;13.80;;
72573;SDS011;60603;52.548;13.420;2022-12-18T06:17:22;50.97;;;15.85;;
72573;SDS011;60603;52.548;13.420;2022-12-18T06:19:47;50.00;;;14.93;;
72573;SDS011;60603;52.548;13.420;2022-12-18T06:22:13;46.70;;;15.77;;
72573;SDS011;60603;52.548;13.420;2022-12-18T06:24:39;48.88;;;15.25;;
72573;SDS011;60603;52.548;13.420;2022-12-18T06:27:05;40.88;;;15.18;;
72573;SDS011;60603;52.548;13.420;2022-12-18T06:29:30;43.28;;;14.25;;
72573;SDS011;60603;52.548;13.420;2022-12-18T06:31:56;38.10;;;13.23;;
72573;SDS011;60603;52.548;13.420;2022-12-18T06:34:22;50.53;;;14.98;;
72573;SDS011;60603;52.548;13.420;2022-12-18T06:36:48;45.38;;;15.95;;
72573;SDS011;60603;52.548;13.420;2022-12-18T06:39:13;52.75;;;14.80;;
72573;SDS011;60603;52.548;13.420;2022-12-18T06:41:39;45.13;;;15.85;;
72573;SDS011;60603;52.548;13.420;2022-12-18T06:44:05;46.22;;;15.32;;
72573;SDS011;60603;52.548;13.420;2022-12-18T06:46:32;48.45;;;14.25;;
72573;SDS011;60603;52.548;13.420;2022-12-18T06:48:57;45.90;;;15.10;;
72573;SDS011;60603;52.548;13.420;2022-12-18T06:51:23;46.65;;;14.63;;
72573;SDS011;60603;52.548;13.420;2022-12-18T06:53:49;44.17;;;15.82;;
72573;SDS011;60603;52.548;13.420;2022-12-18T06:56:15;47.00;;;14.77;;
72573;SDS011;60603;52.548;13.420;2022-12-18T06:58:41;43.78;;;16.02;;
72573;SDS011;60603;52.548;13.420;2022-12-18T07:01:09;46.53;;;15.45;;
72573;SDS011;60603;52.548;13.420;2022-12-18T07:03:37;46.78;;;16.20;;
72573;SDS011;60603;52.548;13.420;2022-12-18T07:06:06;45.60;;;14.48;;
72573;SDS011;60603;52.548;13.420;2022-12-18T07:08:32;46.17;;;12.10;;
72573;SDS011;60603;52.548;13.420;2022-12-18T07:10:58;42.78;;;15.65;;
72573;SDS011;60603;52.548;13.420;2022-12-18T07:13:23;55.08;;;15.68;;
72573;SDS011;60603;52.548;13.420;2022-12-18T07:15:49;51.35;;;14.73;;
72573;SDS011;60603;52.548;13.420;2022-12-18T07:18:15;44.67;;;14.57;;
72573;SDS011;60603;52.548;13.420;2022-12-18T07:20:41;44.33;;;14.73;;
72573;SDS011;60603;52.548;13.420;2022-12-18T07:23:07;51.85;;;14.95;;
72573;SDS011;60603;52.548;13.420;2022-12-18T07:25:36;59.38;;;16.17;;
72573;SDS011;60603;52.548;13.420;2022-12-18T07:28:02;45.47;;;14.32;;
72573;SDS011;60603;52.548;13.420;2022-12-18T07:30:28;45.42;;;13.60;;
72573;SDS011;60603;52.548;13.420;2022-12-18T07:32:54;48.20;;;14.32;;
72573;SDS011;60603;52.548;13.420;2022-12-18T07:35:20;42.75;;;14.32;;
72573;SDS011;60603;52.548;13.420;2022-12-18T07:37:45;42.55;;;13.60;;
72573;SDS011;60603;52.548;13.420;2022-12-18T07:40:12;52.08;;;15.55;;
72573;SDS011;60603;52.548;13.420;2022-12-18T07:42:37;57.58;;;15.63;;
72573;SDS011;60603;52.548;13.420;2022-12-18T07:45:03;44.03;;;14.73;;
72573;SDS011;60603;52.548;13.420;2022-12-18T07:47:29;40.97;;;13.38;;
72573;SDS011;60603;52.548;13.420;2022-12-18T07:49:55;39.10;;;13.32;;
72573;SDS011;60603;52.548;13.420;2022-12-18T07:52:21;42.83;;;13.05;;
72573;SDS011;60603;52.548;13.420;2022-12-18T07:54:47;42.92;;;15.07;;
72573;SDS011;60603;52.548;13.420;2022-12-18T07:57:15;43.83;;;13.45;;
72573;SDS011;60603;52.548;13.420;2022-12-18T07:59:42;38.38;;;13.48;;
72573;SDS011;60603;52.548;13.420;2022-12-18T08:02:07;34.42;;;11.60;;
72573;SDS011;60603;52.548;13.420;2022-12-18T08:04:33;39.60;;;12.43;;
72573;SDS011;60603;52.548;13.420;2022-12-18T08:07:00;39.72;;;14.55;;
72573;SDS011;60603;52.548;13.420;2022-12-18T08:09:26;41.97;;;14.35;;
72573;SDS011;60603;52.548;13.420;2022-12-18T08:11:52;51.25;;;14.48;;
72573;SDS011;60603;52.548;13.420;2022-12-18T08:14:18;34.45;;;12.93;;
72573;SDS011;60603;52.548;13.420;2022-12-18T08:16:43;43.38;;;14.07;;
72573;SDS011;60603;52.548;13.420;2022-12-18T08:19:09;44.65;;;16.23;;
72573;SDS011;60603;52.548;13.420;2022-12-18T08:21:35;43.67;;;15.70;;
72573;SDS011;60603;52.548;13.420;2022-12-18T08:24:01;37.47;;;12.48;;
72573;SDS011;60603;52.548;13.420;2022-12-18T08:26:28;37.40;;;13.00;;
72573;SDS011;60603;52.548;13.420;2022-12-18T08:28:56;39.83;;;12.43;;
72573;SDS011;60603;52.548;13.420;2022-12-18T08:31:23;33.63;;;13.77;;
72573;SDS011;60603;52.548;13.420;2022-12-18T08:33:50;40.83;;;13.05;;
72573;SDS011;60603;52.548;13.420;2022-12-18T08:36:17;39.67;;;14.05;;
72573;SDS011;60603;52.548;13.420;2022-12-18T08:38:45;36.17;;;12.60;;
72573;SDS011;60603;52.548;13.420;2022-12-18T08:41:12;33.72;;;10.98;;
72573;SDS011;60603;52.548;13.420;2022-12-18T08:43:38;39.20;;;12.93;;
72573;SDS011;60603;52.548;13.420;2022-12-18T08:46:23;27.88;;;11.20;;
72573;SDS011;60603;52.548;13.420;2022-12-18T08:48:51;36.45;;;12.80;;
72573;SDS011;60603;52.548;13.420;2022-12-18T08:51:17;32.28;;;12.00;;
72573;SDS011;60603;52.548;13.420;2022-12-18T08:53:43;30.38;;;13.15;;
72573;SDS011;60603;52.548;13.420;2022-12-18T08:56:09;37.72;;;12.45;;
72573;SDS011;60603;52.548;13.420;2022-12-18T08:58:36;31.35;;;11.88;;
72573;SDS011;60603;52.548;13.420;2022-12-18T09:01:06;31.98;;;11.27;;
72573;SDS011;60603;52.548;13.420;2022-12-18T09:03:34;33.50;;;10.90;;
72573;SDS011;60603;52.548;13.420;2022-12-18T09:06:00;29.10;;;10.75;;
72573;SDS011;60603;52.548;13.420;2022-12-18T09:08:27;30.70;;;10.27;;
72573;SDS011;60603;52.548;13.420;2022-12-18T09:10:53;35.25;;;13.77;;
72573;SDS011;60603;52.548;13.420;2022-12-18T09:13:19;38.00;;;12.57;;
72573;SDS011;60603;52.548;13.420;2022-12-18T09:15:47;33.95;;;11.52;;
72573;SDS011;60603;52.548;13.420;2022-12-18T09:18:15;35.92;;;12.10;;
72573;SDS011;60603;52.548;13.420;2022-12-18T09:20:42;35.85;;;12.15;;
72573;SDS011;60603;52.548;13.420;2022-12-18T09:23:08;33.35;;;11.63;;
72573;SDS011;60603;52.548;13.420;2022-12-18T09:25:35;29.95;;;11.15;;
72573;SDS011;60603;52.548;13.420;2022-12-18T09:28:02;32.35;;;11.88;;
72573;SDS011;60603;52.548;13.420;2022-12-18T09:30:29;36.25;;;14.18;;
72573;SDS011;60603;52.548;13.420;2022-12-18T09:32:55;31.23;;;11.65;;
72573;SDS011;60603;52.548;13.420;2022-12-18T09:35:21;37.17;;;12.80;;
72573;SDS011;60603;52.548;13.420;2022-12-18T09:37:47;36.90;;;11.50;;
72573;SDS011;60603;52.548;13.420;2022-12-18T09:40:16;33.17;;;10.48;;
72573;SDS011;60603;52.548;13.420;2022-12-18T09:43:18;36.70;;;13.00;;
72573;SDS011;60603;52.548;13.420;2022-12-18T09:45:47;35.35;;;14.15;;
72573;SDS011;60603;52.548;13.420;2022-12-18T09:48:27;34.88;;;12.45;;
72573;SDS011;60603;52.548;13.420;2022-12-18T09:50:56;37.42;;;11.98;;
72573;SDS011;60603;52.548;13.420;2022-12-18T09:53:26;38.15;;;13.90;;
72573;SDS011;60603;52.548;13.420;2022-12-18T09:55:53;41.40;;;13.70;;
72573;SDS011;60603;52.548;13.420;2022-12-18T09:58:24;41.15;;;12.93;;
72573;SDS011;60603;52.548;13.420;2022-12-18T10:00:52;41.28;;;13.20;;
72573;SDS011;60603;52.548;13.420;2022-12-18T10:03:18;39.40;;;15.30;;
72573;SDS011;60603;52.548;13.420;2022-12-18T10:05:51;31.70;;;10.65;;
72573;SDS011;60603;52.548;13.420;2022-12-18T10:08:21;31.80;;;12.80;;
72573;SDS011;60603;52.548;13.420;2022-12-18T10:11:21;41.03;;;14.25;;
72573;SDS011;60603;52.548;13.420;2022-12-18T10:16:31;35.33;;;12.75;;
72573;SDS011;60603;52.548;13.420;2022-12-18T10:22:35;30.40;;;12.13;;
72573;SDS011;60603;52.548;13.420;2022-12-18T10:25:15;36.35;;;12.48;;
72573;SDS011;60603;52.548;13.420;2022-12-18T10:27:43;45.30;;;12.45;;
72573;SDS011;60603;52.548;13.420;2022-12-18T10:30:13;40.38;;;11.90;;
72573;SDS011;60603;52.548;13.420;2022-12-18T10:35:16;42.25;;;14.02;;
72573;SDS011;60603;52.548;13.420;2022-12-18T10:38:04;47.75;;;13.48;;
72573;SDS011;60603;52.548;13.420;2022-12-18T10:40:58;31.83;;;12.38;;
72573;SDS011;60603;52.548;13.420;2022-12-18T10:48:33;36.00;;;13.82;;
72573;SDS011;60603;52.548;13.420;2022-12-18T10:51:00;30.55;;;12.68;;
72573;SDS011;60603;52.548;13.420;2022-12-18T10:53:27;37.25;;;13.27;;
72573;SDS011;60603;52.548;13.420;2022-12-18T10:55:55;38.20;;;13.30;;
72573;SDS011;60603;52.548;13.420;2022-12-18T10:58:33;44.40;;;14.60;;
72573;SDS011;60603;52.548;13.420;2022-12-18T11:01:14;40.67;;;13.00;;
72573;SDS011;60603;52.548;13.420;2022-12-18T11:03:45;49.22;;;14.70;;
72573;SDS011;60603;52.548;13.420;2022-12-18T11:06:13;44.72;;;15.63;;
72573;SDS011;60603;52.548;13.420;2022-12-18T11:08:41;38.67;;;14.52;;
72573;SDS011;60603;52.548;13.420;2022-12-18T11:11:21;43.50;;;14.63;;
72573;SDS011;60603;52.548;13.420;2022-12-18T11:13:54;50.75;;;16.42;;
72573;SDS011;60603;52.548;13.420;2022-12-18T11:16:30;45.20;;;13.80;;
72573;SDS011;60603;52.548;13.420;2022-12-18T11:19:13;45.92;;;13.75;;
72573;SDS011;60603;52.548;13.420;2022-12-18T11:21:46;35.78;;;14.85;;
72573;SDS011;60603;52.548;13.420;2022-12-18T11:26:54;39.45;;;15.18;;
72573;SDS011;60603;52.548;13.420;2022-12-18T11:29:26;36.00;;;13.88;;
72573;SDS011;60603;52.548;13.420;2022-12-18T11:32:21;46.10;;;14.48;;
72573;SDS011;60603;52.548;13.420;2022-12-18T11:34:49;38.53;;;14.10;;
72573;SDS011;60603;52.548;13.420;2022-12-18T11:37:17;35.03;;;13.80;;
72573;SDS011;60603;52.548;13.420;2022-12-18T11:39:46;32.20;;;12.60;;
72573;SDS011;60603;52.548;13.420;2022-12-18T11:42:27;33.70;;;12.27;;
72573;SDS011;60603;52.548;13.420;2022-12-18T11:45:08;34.97;;;12.25;;
72573;SDS011;60603;52.548;13.420;2022-12-18T11:47:51;34.25;;;12.93;;
72573;SDS011;60603;52.548;13.420;2022-12-18T11:50:31;32.25;;;12.88;;
72573;SDS011;60603;52.548;13.420;2022-12-18T11:52:58;37.60;;;13.18;;
72573;SDS011;60603;52.548;13.420;2022-12-18T12:00:47;34.03;;;11.80;;
72573;SDS011;60603;52.548;13.420;2022-12-18T12:03:24;33.67;;;13.43;;
72573;SDS011;60603;52.548;13.420;2022-12-18T12:06:03;39.28;;;13.07;;
72573;SDS011;60603;52.548;13.420;2022-12-18T12:22:13;27.50;;;10.60;;
72573;SDS011;60603;52.548;13.420;2022-12-18T12:30:22;33.83;;;12.98;;
72573;SDS011;60603;52.548;13.420;2022-12-18T12:32:59;41.70;;;14.95;;
72573;SDS011;60603;52.548;13.420;2022-12-18T12:41:03;33.50;;;12.90;;
72573;SDS011;60603;52.548;13.420;2022-12-18T12:43:35;31.58;;;12.07;;
72573;SDS011;60603;52.548;13.420;2022-12-18T12:46:06;33.67;;;12.88;;
72573;SDS011;60603;52.548;13.420;2022-12-18T12:48:35;36.72;;;12.30;;
72573;SDS011;60603;52.548;13.420;2022-12-18T12:51:12;41.00;;;15.60;;
72573;SDS011;60603;52.548;13.420;2022-12-18T12:53:41;36.28;;;13.60;;
72573;SDS011;60603;52.548;13.420;2022-12-18T12:56:10;38.05;;;12.90;;
72573;SDS011;60603;52.548;13.420;2022-12-18T13:01:13;30.27;;;13.60;;
72573;SDS011;60603;52.548;13.420;2022-12-18T13:06:28;31.85;;;12.88;;
72573;SDS011;60603;52.548;13.420;2022-12-18T13:09:01;33.97;;;13.85;;
72573;SDS011;60603;52.548;13.420;2022-12-18T13:14:22;34.13;;;12.93;;
72573;SDS011;60603;52.548;13.420;2022-12-18T13:22:59;34.50;;;13.35;;
72573;SDS011;60603;52.548;13.420;2022-12-18T13:38:55;27.30;;;11.45;;
72573;SDS011;60603;52.548;13.420;2022-12-18T13:41:00;32.33;;;12.18;;
72573;SDS011;60603;52.548;13.420;2022-12-18T13:43:31;34.47;;;13.10;;
72573;SDS011;60603;52.548;13.420;2022-12-18T13:49:35;34.08;;;12.73;;
72573;SDS011;60603;52.548;13.420;2022-12-18T13:51:44;34.65;;;13.35;;
72573;SDS011;60603;52.548;13.420;2022-12-18T13:54:30;31.63;;;13.00;;
72573;SDS011;60603;52.548;13.420;2022-12-18T13:57:02;29.20;;;11.63;;
72573;SDS011;60603;52.548;13.420;2022-12-18T13:59:36;34.63;;;14.15;;
72573;SDS011;60603;52.548;13.420;2022-12-18T14:02:15;33.83;;;14.25;;
72573;SDS011;60603;52.548;13.420;2022-12-18T14:04:47;38.83;;;14.93;;
72573;SDS011;60603;52.548;13.420;2022-12-18T14:07:15;34.00;;;14.43;;
72573;SDS011;60603;52.548;13.420;2022-12-18T14:09:43;38.70;;;15.35;;
72573;SDS011;60603;52.548;13.420;2022-12-18T14:12:22;39.97;;;15.32;;
72573;SDS011;60603;52.548;13.420;2022-12-18T14:15:31;41.78;;;13.77;;
72573;SDS011;60603;52.548;13.420;2022-12-18T14:21:15;36.85;;;13.77;;
72573;SDS011;60603;52.548;13.420;2022-12-18T14:23:43;30.17;;;13.25;;
72573;SDS011;60603;52.548;13.420;2022-12-18T14:26:26;38.30;;;14.85;;
72573;SDS011;60603;52.548;13.420;2022-12-18T14:29:01;40.40;;;14.80;;
72573;SDS011;60603;52.548;13.420;2022-12-18T14:32:13;39.92;;;14.20;;
72573;SDS011;60603;52.548;13.420;2022-12-18T14:34:43;31.63;;;12.60;;
72573;SDS011;60603;52.548;13.420;2022-12-18T14:37:10;31.67;;;12.60;;
72573;SDS011;60603;52.548;13.420;2022-12-18T14:39:37;31.63;;;13.57;;
72573;SDS011;60603;52.548;13.420;2022-12-18T14:42:03;31.23;;;12.20;;
72573;SDS011;60603;52.548;13.420;2022-12-18T14:44:29;36.67;;;14.15;;
72573;SDS011;60603;52.548;13.420;2022-12-18T14:46:55;32.20;;;13.05;;
72573;SDS011;60603;52.548;13.420;2022-12-18T14:49:31;30.60;;;13.85;;
72573;SDS011;60603;52.548;13.420;2022-12-18T14:51:59;33.20;;;12.90;;
72573;SDS011;60603;52.548;13.420;2022-12-18T14:54:26;26.48;;;10.80;;
72573;SDS011;60603;52.548;13.420;2022-12-18T14:57:03;31.98;;;13.23;;
72573;SDS011;60603;52.548;13.420;2022-12-18T14:59:31;24.65;;;12.13;;
72573;SDS011;60603;52.548;13.420;2022-12-18T15:01:59;29.40;;;12.18;;
72573;SDS011;60603;52.548;13.420;2022-12-18T15:04:36;33.53;;;12.88;;
72573;SDS011;60603;52.548;13.420;2022-12-18T15:07:06;32.38;;;13.57;;
72573;SDS011;60603;52.548;13.420;2022-12-18T15:09:35;27.05;;;12.98;;
72573;SDS011;60603;52.548;13.420;2022-12-18T15:12:01;40.58;;;14.15;;
72573;SDS011;60603;52.548;13.420;2022-12-18T15:14:34;29.48;;;13.57;;
72573;SDS011;60603;52.548;13.420;2022-12-18T15:17:06;31.50;;;12.52;;
72573;SDS011;60603;52.548;13.420;2022-12-18T15:19:40;33.08;;;14.23;;
72573;SDS011;60603;52.548;13.420;2022-12-18T15:22:20;29.30;;;13.52;;
72573;SDS011;60603;52.548;13.420;2022-12-18T15:24:48;32.35;;;12.13;;
72573;SDS011;60603;52.548;13.420;2022-12-18T15:27:33;31.10;;;13.45;;
72573;SDS011;60603;52.548;13.420;2022-12-18T15:32:36;28.15;;;12.45;;
72573;SDS011;60603;52.548;13.420;2022-12-18T15:37:35;26.98;;;11.50;;
72573;SDS011;60603;52.548;13.420;2022-12-18T15:40:01;25.40;;;10.82;;
72573;SDS011;60603;52.548;13.420;2022-12-18T15:42:28;31.65;;;12.65;;
72573;SDS011;60603;52.548;13.420;2022-12-18T15:45:13;34.00;;;14.73;;
72573;SDS011;60603;52.548;13.420;2022-12-18T15:47:39;31.90;;;12.68;;
72573;SDS011;60603;52.548;13.420;2022-12-18T15:50:04;22.10;;;9.90;;
72573;SDS011;60603;52.548;13.420;2022-12-18T15:52:37;26.65;;;11.77;;
72573;SDS011;60603;52.548;13.420;2022-12-18T15:55:10;30.92;;;11.35;;
72573;SDS011;60603;52.548;13.420;2022-12-18T15:57:56;19.30;;;9.90;;
72573;SDS011;60603;52.548;13.420;2022-12-18T16:00:22;26.33;;;10.43;;
72573;SDS011;60603;52.548;13.420;2022-12-18T16:02:48;24.85;;;11.02;;
72573;SDS011;60603;52.548;13.420;2022-12-18T16:05:14;24.52;;;11.68;;
72573;SDS011;60603;52.548;13.420;2022-12-18T16:07:41;22.45;;;11.27;;
72573;SDS011;60603;52.548;13.420;2022-12-18T16:10:06;28.90;;;11.60;;